createdAt,value
2022-12-12T00:00:08.624Z,11.75
2022-12-12T00:02:38.067Z,11.60
2022-12-12T00:05:05.549Z,12.55
2022-12-12T00:07:31.367Z,12.75
2022-12-12T00:09:57.153Z,11.93
2022-12-12T00:12:22.936Z,14.55
2022-12-12T00:14:48.700Z,14.85
2022-12-12T00:17:14.507Z,17.52
2022-12-12T00:19:40.347Z,16.50
2022-12-12T00:22:06.112Z,17.88
2022-12-12T00:24:31.897Z,18.85
2022-12-12T00:26:57.626Z,18.48
2022-12-12T00:29:23.363Z,17.98
2022-12-12T00:31:49.182Z,19.30
2022-12-12T00:34:14.940Z,17.95
2022-12-12T00:36:40.746Z,19.50
2022-12-12T00:39:06.699Z,21.33
2022-12-12T00:41:32.469Z,19.05
2022-12-12T00:43:58.282Z,18.83
2022-12-12T00:46:25.172Z,18.10
2022-12-12T00:48:54.690Z,19.98
2022-12-12T00:51:21.978Z,19.95
2022-12-12T00:53:48.764Z,20.35
2022-12-12T00:56:16.482Z,20.27
2022-12-12T00:58:42.813Z,19.23
2022-12-12T01:01:11.342Z,20.27
2022-12-12T01:03:39.700Z,20.60
2022-12-12T01:06:06.154Z,19.83
2022-12-12T01:08:32.547Z,20.45
2022-12-12T01:10:58.345Z,20.92
2022-12-12T01:13:25.356Z,19.05
2022-12-12T01:15:51.485Z,18.80
2022-12-12T01:18:18.533Z,18.55
2022-12-12T01:20:44.812Z,19.88
2022-12-12T01:23:11.119Z,20.25
2022-12-12T01:25:37.350Z,19.08
2022-12-12T01:28:04.031Z,20.42
2022-12-12T01:30:29.925Z,19.15
2022-12-12T01:32:55.885Z,20.77
2022-12-12T01:35:23.236Z,18.45
2022-12-12T01:37:49.355Z,19.52
2022-12-12T01:40:19.545Z,18.92
2022-12-12T01:42:46.032Z,19.70
2022-12-12T01:45:48.880Z,18.75
2022-12-12T01:48:14.632Z,17.70
2022-12-12T01:50:43.143Z,18.60
2022-12-12T01:53:10.878Z,19.40
2022-12-12T01:55:36.757Z,18.10
2022-12-12T01:58:02.757Z,18.40
2022-12-12T02:00:28.574Z,18.85
2022-12-12T02:05:57.006Z,18.40
2022-12-12T02:08:24.779Z,17.08
2022-12-12T02:10:51.172Z,19.95
2022-12-12T02:13:23.615Z,19.02
2022-12-12T02:16:23.614Z,18.77
2022-12-12T02:19:19.766Z,19.90
2022-12-12T02:21:48.506Z,20.48
2022-12-12T02:24:39.141Z,17.92
2022-12-12T02:27:23.828Z,20.58
2022-12-12T02:30:01.772Z,19.02
2022-12-12T02:32:37.911Z,17.75
2022-12-12T02:35:19.537Z,19.30
2022-12-12T02:37:56.588Z,18.08
2022-12-12T02:40:34.339Z,18.98
2022-12-12T02:43:14.150Z,19.83
2022-12-12T02:45:47.042Z,19.38
2022-12-12T02:48:12.843Z,18.83
2022-12-12T02:50:41.514Z,19.48
2022-12-12T02:53:07.458Z,19.45
2022-12-12T02:55:36.372Z,18.48
2022-12-12T02:58:05.168Z,21.02
2022-12-12T03:00:40.077Z,20.55
2022-12-12T03:03:44.351Z,20.73
2022-12-12T03:06:50.744Z,20.27
2022-12-12T03:09:39.280Z,20.92
2022-12-12T03:12:22.228Z,22.23
2022-12-12T03:15:16.375Z,22.20
2022-12-12T03:17:55.387Z,21.38
2022-12-12T03:20:46.935Z,23.33
2022-12-12T03:23:21.789Z,21.85
2022-12-12T03:26:11.273Z,22.90
2022-12-12T03:28:58.762Z,22.48
2022-12-12T03:31:30.819Z,24.25
2022-12-12T03:34:01.566Z,23.63
2022-12-12T03:36:31.863Z,22.73
2022-12-12T03:39:14.853Z,23.73
2022-12-12T03:41:47.286Z,22.67
2022-12-12T03:44:15.898Z,22.48
2022-12-12T03:46:48.595Z,23.35
2022-12-12T03:49:27.147Z,24.95
2022-12-12T03:52:25.891Z,22.80
2022-12-12T03:54:59.891Z,23.63
2022-12-12T03:57:35.525Z,22.30
2022-12-12T04:00:08.031Z,21.73
2022-12-12T04:02:55.912Z,22.75
2022-12-12T04:06:06.963Z,21.92
2022-12-12T04:08:34.188Z,22.95
2022-12-12T04:11:30.463Z,22.23
2022-12-12T04:14:10.230Z,22.17
2022-12-12T04:16:41.337Z,24.13
2022-12-12T04:19:43.962Z,21.92
2022-12-12T04:22:38.455Z,22.85
2022-12-12T04:25:16.300Z,22.90
2022-12-12T04:27:50.010Z,23.60
2022-12-12T04:30:16.715Z,22.17
2022-12-12T04:32:49.076Z,25.98
2022-12-12T04:35:17.191Z,25.25
2022-12-12T04:37:53.284Z,24.08
2022-12-12T04:40:31.956Z,24.30
2022-12-12T04:43:02.606Z,23.95
2022-12-12T04:45:33.852Z,26.02
2022-12-12T04:48:02.655Z,24.88
2022-12-12T04:50:31.394Z,24.30
2022-12-12T04:53:01.435Z,26.58
2022-12-12T04:55:32.384Z,23.45
2022-12-12T04:57:58.635Z,21.02
2022-12-12T05:00:29.437Z,22.55
2022-12-12T05:03:02.970Z,24.33
2022-12-12T05:05:31.366Z,24.02
2022-12-12T05:08:28.921Z,23.05
2022-12-12T05:10:58.771Z,27.27
2022-12-12T05:13:28.633Z,25.98
2022-12-12T05:15:57.019Z,23.35
2022-12-12T05:18:23.364Z,26.05
2022-12-12T05:20:50.031Z,27.45
2022-12-12T05:23:16.012Z,26.95
2022-12-12T05:25:41.830Z,25.38
2022-12-12T05:28:07.642Z,25.73
2022-12-12T05:30:33.793Z,26.33
2022-12-12T05:32:59.802Z,28.75
2022-12-12T05:35:26.279Z,27.17
2022-12-12T05:37:52.464Z,27.13
2022-12-12T05:40:19.460Z,27.27
2022-12-12T05:42:45.260Z,28.20
2022-12-12T05:45:11.690Z,26.88
2022-12-12T05:47:37.736Z,28.33
2022-12-12T05:50:05.276Z,28.25
2022-12-12T05:52:31.320Z,26.50
2022-12-12T05:54:57.294Z,28.33
2022-12-12T05:57:23.726Z,25.83
2022-12-12T05:59:49.661Z,27.67
2022-12-12T06:02:16.096Z,28.13
2022-12-12T06:04:42.100Z,27.15
2022-12-12T06:07:08.617Z,29.73
2022-12-12T06:09:35.689Z,27.70
2022-12-12T06:12:01.787Z,26.80
2022-12-12T06:14:27.848Z,27.13
2022-12-12T06:16:53.695Z,27.90
2022-12-12T06:19:20.097Z,28.02
2022-12-12T06:21:46.544Z,26.92
2022-12-12T06:24:12.769Z,27.85
2022-12-12T06:26:38.685Z,27.52
2022-12-12T06:29:04.793Z,27.38
2022-12-12T06:31:30.803Z,28.17
2022-12-12T06:33:56.689Z,26.92
2022-12-12T06:36:24.348Z,27.63
2022-12-12T06:38:52.659Z,26.17
2022-12-12T06:41:19.353Z,25.80
2022-12-12T06:43:45.211Z,25.00
2022-12-12T06:46:23.609Z,26.13
2022-12-12T06:48:50.063Z,25.65
2022-12-12T06:51:19.620Z,23.10
2022-12-12T06:53:46.090Z,25.77
2022-12-12T06:56:20.746Z,23.95
2022-12-12T06:58:47.581Z,24.70
2022-12-12T07:01:14.974Z,26.67
2022-12-12T07:03:41.395Z,26.13
2022-12-12T07:06:07.660Z,24.60
2022-12-12T07:08:34.635Z,24.83
2022-12-12T07:11:06.133Z,25.75
2022-12-12T07:13:32.402Z,26.77
2022-12-12T07:15:58.438Z,25.92
2022-12-12T07:18:24.261Z,26.08
2022-12-12T07:20:50.096Z,26.77
2022-12-12T07:23:15.894Z,26.23
2022-12-12T07:25:44.104Z,27.40
2022-12-12T07:28:12.019Z,25.98
2022-12-12T07:30:40.053Z,25.67
2022-12-12T07:33:06.349Z,27.00
2022-12-12T07:35:32.472Z,25.98
2022-12-12T07:37:58.481Z,27.42
2022-12-12T07:40:24.543Z,25.77
2022-12-12T07:42:50.312Z,23.75
2022-12-12T07:45:18.419Z,27.55
2022-12-12T07:47:44.856Z,26.55
2022-12-12T07:50:11.057Z,25.92
2022-12-12T07:52:37.035Z,30.40
2022-12-12T07:55:03.223Z,39.13
2022-12-12T07:57:30.075Z,36.78
2022-12-12T07:59:56.866Z,38.15
2022-12-12T08:02:23.225Z,31.15
2022-12-12T08:04:49.138Z,30.60
2022-12-12T08:07:15.151Z,31.20
2022-12-12T08:09:41.072Z,28.98
2022-12-12T08:12:07.085Z,28.40
2022-12-12T08:14:33.512Z,30.38
2022-12-12T08:16:59.706Z,29.45
2022-12-12T08:19:25.506Z,29.52
2022-12-12T08:21:51.360Z,26.95
2022-12-12T08:24:17.535Z,26.27
2022-12-12T08:26:44.374Z,25.80
2022-12-12T08:29:11.051Z,25.17
2022-12-12T08:31:38.238Z,23.80
2022-12-12T08:34:04.853Z,25.00
2022-12-12T08:36:34.121Z,25.08
2022-12-12T08:39:11.983Z,26.38
2022-12-12T08:41:41.193Z,22.75
2022-12-12T08:44:09.396Z,23.77
2022-12-12T08:46:35.247Z,22.27
2022-12-12T08:49:01.032Z,21.35
2022-12-12T08:51:26.966Z,23.45
2022-12-12T08:53:53.372Z,21.80
2022-12-12T08:56:21.010Z,23.15
2022-12-12T08:58:46.866Z,22.00
2022-12-12T09:01:15.116Z,23.33
2022-12-12T09:03:41.102Z,20.90
2022-12-12T09:06:08.389Z,23.13
2022-12-12T09:08:34.287Z,22.50
2022-12-12T09:11:00.125Z,21.88
2022-12-12T09:13:25.977Z,20.77
2022-12-12T09:15:52.439Z,20.02
2022-12-12T09:18:19.943Z,19.40
2022-12-12T09:20:49.984Z,18.75
2022-12-12T09:23:16.673Z,19.70
2022-12-12T09:25:43.028Z,20.65
2022-12-12T09:28:11.245Z,20.77
2022-12-12T09:30:37.530Z,20.98
2022-12-12T09:33:03.568Z,21.33
2022-12-12T09:35:29.493Z,21.38
2022-12-12T09:37:55.283Z,19.90
2022-12-12T09:40:30.539Z,20.90
2022-12-12T09:42:56.446Z,21.15
2022-12-12T09:45:22.786Z,20.02
2022-12-12T09:47:57.758Z,19.55
2022-12-12T09:50:34.504Z,20.27
2022-12-12T09:53:09.791Z,21.85
2022-12-12T09:55:57.521Z,22.23
2022-12-12T09:58:50.122Z,20.17
2022-12-12T10:01:29.311Z,21.13
2022-12-12T10:04:09.821Z,22.70
2022-12-12T10:06:46.710Z,21.35
2022-12-12T10:09:47.940Z,21.92
2022-12-12T10:12:16.248Z,21.88
2022-12-12T10:14:45.990Z,22.42
2022-12-12T10:17:18.017Z,20.55
2022-12-12T10:19:55.235Z,20.35
2022-12-12T10:22:51.370Z,21.77
2022-12-12T10:25:32.203Z,21.08
2022-12-12T10:28:15.430Z,21.73
2022-12-12T10:31:09.366Z,22.80
2022-12-12T10:33:44.418Z,28.05
2022-12-12T10:36:40.980Z,26.48
2022-12-12T10:39:54.098Z,23.58
2022-12-12T10:42:50.460Z,21.40
2022-12-12T10:45:28.688Z,22.60
2022-12-12T10:47:54.577Z,23.20
2022-12-12T10:50:27.093Z,22.80
2022-12-12T10:52:53.249Z,23.02
2022-12-12T10:55:24.465Z,20.75
2022-12-12T10:58:02.973Z,22.15
2022-12-12T11:00:41.600Z,22.05
2022-12-12T11:03:27.447Z,22.88
2022-12-12T11:05:55.559Z,19.67
2022-12-12T11:08:31.214Z,19.55
2022-12-12T11:11:18.809Z,20.20
2022-12-12T11:13:58.584Z,20.20
2022-12-12T11:16:30.101Z,20.45
2022-12-12T11:19:04.404Z,20.10
2022-12-12T11:21:35.365Z,19.27
2022-12-12T11:24:08.632Z,21.83
2022-12-12T11:26:55.422Z,18.38
2022-12-12T11:29:30.468Z,19.77
2022-12-12T11:31:58.006Z,22.42
2022-12-12T11:34:26.964Z,19.75
2022-12-12T11:36:53.737Z,18.05
2022-12-12T11:39:31.988Z,17.58
2022-12-12T11:42:04.478Z,19.08
2022-12-12T11:44:35.668Z,18.55
2022-12-12T11:47:27.712Z,17.95
2022-12-12T11:49:59.340Z,19.55
2022-12-12T11:52:31.020Z,19.02
2022-12-12T11:54:58.021Z,19.25
2022-12-12T11:58:07.721Z,19.15
2022-12-12T12:01:01.380Z,15.20
2022-12-12T12:04:02.423Z,14.43
2022-12-12T12:06:55.426Z,15.32
2022-12-12T12:09:42.864Z,14.85
2022-12-12T12:12:27.471Z,12.73
2022-12-12T12:15:14.097Z,14.73
2022-12-12T12:18:16.970Z,12.68
2022-12-12T12:21:13.022Z,12.80
2022-12-12T12:23:58.598Z,13.23
2022-12-12T12:26:51.048Z,14.25
2022-12-12T12:29:38.613Z,14.93
2022-12-12T12:32:16.219Z,14.52
2022-12-12T12:35:01.869Z,14.05
2022-12-12T12:37:46.110Z,13.38
2022-12-12T12:40:40.949Z,14.85
2022-12-12T12:43:42.273Z,14.15
2022-12-12T12:46:29.173Z,14.52
2022-12-12T12:49:24.115Z,15.50
2022-12-12T12:51:56.695Z,15.05
2022-12-12T12:54:26.277Z,14.05
2022-12-12T12:57:13.990Z,15.07
2022-12-12T12:59:43.359Z,16.60
2022-12-12T13:02:34.199Z,16.13
2022-12-12T13:05:16.052Z,14.93
2022-12-12T13:08:01.642Z,15.65
2022-12-12T13:10:29.072Z,14.45
2022-12-12T13:13:11.509Z,15.18
2022-12-12T13:15:46.016Z,14.63
2022-12-12T13:18:14.784Z,14.52
2022-12-12T13:21:02.364Z,14.25
2022-12-12T13:23:46.741Z,14.27
2022-12-12T13:26:23.060Z,13.48
2022-12-12T13:28:58.992Z,14.35
2022-12-12T13:31:55.580Z,14.93
2022-12-12T13:34:26.006Z,14.98
2022-12-12T13:36:53.173Z,13.77
2022-12-12T13:39:30.992Z,14.43
2022-12-12T13:42:00.977Z,13.43
2022-12-12T13:44:35.731Z,15.02
2022-12-12T13:47:03.732Z,13.82
2022-12-12T13:49:31.966Z,14.52
2022-12-12T13:52:31.977Z,15.20
2022-12-12T13:55:13.213Z,15.77
2022-12-12T13:58:07.274Z,17.10
2022-12-12T14:00:35.355Z,15.60
2022-12-12T14:03:10.214Z,16.67
2022-12-12T14:05:41.629Z,16.50
2022-12-12T14:08:13.467Z,15.95
2022-12-12T14:10:45.626Z,16.85
2022-12-12T14:13:20.506Z,15.43
2022-12-12T14:15:48.764Z,16.20
2022-12-12T14:18:30.349Z,16.20
2022-12-12T14:21:09.878Z,16.95
2022-12-12T14:23:52.559Z,16.23
2022-12-12T14:26:27.140Z,16.73
2022-12-12T14:29:33.206Z,16.73
2022-12-12T14:32:10.979Z,17.70
2022-12-12T14:35:01.363Z,18.15
2022-12-12T14:37:51.245Z,17.65
2022-12-12T14:40:30.528Z,18.00
2022-12-12T14:43:18.496Z,18.40
2022-12-12T14:45:50.068Z,19.38
2022-12-12T14:48:24.491Z,18.10
2022-12-12T14:50:58.144Z,16.95
2022-12-12T14:53:33.100Z,17.77
2022-12-12T14:56:02.801Z,17.75
2022-12-12T14:58:32.816Z,16.85
2022-12-12T15:01:01.668Z,17.25
2022-12-12T15:03:49.094Z,16.05
2022-12-12T15:06:25.878Z,17.05
2022-12-12T15:08:52.292Z,16.42
2022-12-12T15:11:24.007Z,16.90
2022-12-12T15:13:50.828Z,17.55
2022-12-12T15:16:18.362Z,17.05
2022-12-12T15:18:44.397Z,18.23
2022-12-12T15:21:10.301Z,17.85
2022-12-12T15:23:36.178Z,17.65
2022-12-12T15:26:02.131Z,16.23
2022-12-12T15:28:28.084Z,16.40
2022-12-12T15:30:54.528Z,16.95
2022-12-12T15:33:22.905Z,16.33
2022-12-12T15:36:02.190Z,15.93
2022-12-12T15:38:29.387Z,15.50
2022-12-12T15:40:58.309Z,16.88
2022-12-12T15:43:27.086Z,15.88
2022-12-12T15:46:06.166Z,15.27
2022-12-12T15:48:32.068Z,17.10
2022-12-12T15:51:06.298Z,16.60
2022-12-12T15:53:41.221Z,16.45
2022-12-12T15:56:13.588Z,16.30
2022-12-12T15:58:46.040Z,17.35
2022-12-12T16:01:20.081Z,18.40
2022-12-12T16:04:01.986Z,18.98
2022-12-12T16:06:36.771Z,17.23
2022-12-12T16:09:11.572Z,18.10
2022-12-12T16:11:37.512Z,12.95
2022-12-12T16:14:05.070Z,17.65
2022-12-12T16:16:46.576Z,16.98
2022-12-12T16:19:30.969Z,18.30
2022-12-12T16:22:02.683Z,15.77
2022-12-12T16:24:28.553Z,16.25
2022-12-12T16:26:59.386Z,14.90
2022-12-12T16:29:25.591Z,15.75
2022-12-12T16:31:51.719Z,15.10
2022-12-12T16:34:18.189Z,15.40
2022-12-12T16:36:44.193Z,15.50
2022-12-12T16:39:10.892Z,17.90
2022-12-12T16:41:36.843Z,18.10
2022-12-12T16:44:02.741Z,19.08
2022-12-12T16:46:28.668Z,20.05
2022-12-12T16:48:56.473Z,19.95
2022-12-12T16:51:29.487Z,18.13
2022-12-12T16:53:55.608Z,17.90
2022-12-12T16:56:21.513Z,18.45
2022-12-12T16:58:47.442Z,19.27
2022-12-12T17:01:16.201Z,17.42
2022-12-12T17:03:42.462Z,18.08
2022-12-12T17:06:08.515Z,17.52
2022-12-12T17:08:34.608Z,17.40
2022-12-12T17:11:10.688Z,16.10
2022-12-12T17:13:42.101Z,16.13
2022-12-12T17:16:08.036Z,18.20
2022-12-12T17:18:33.933Z,16.92
2022-12-12T17:20:59.793Z,15.48
2022-12-12T17:23:28.246Z,14.80
2022-12-12T17:26:00.715Z,14.75
2022-12-12T17:28:30.228Z,13.30
2022-12-12T17:30:56.161Z,14.68
2022-12-12T17:33:22.039Z,12.30
2022-12-12T17:36:04.890Z,11.32
2022-12-12T17:38:31.183Z,11.63
2022-12-12T17:41:01.419Z,11.40
2022-12-12T17:43:27.625Z,11.07
2022-12-12T17:46:08.914Z,12.02
2022-12-12T17:48:35.401Z,11.80
2022-12-12T17:51:04.507Z,10.80
2022-12-12T17:53:35.764Z,10.57
2022-12-12T17:56:11.607Z,9.45
2022-12-12T17:58:40.235Z,10.35
2022-12-12T18:01:16.186Z,10.40
2022-12-12T18:03:42.969Z,12.00
2022-12-12T18:06:09.948Z,11.60
2022-12-12T18:08:36.606Z,12.63
2022-12-12T18:11:06.873Z,12.63
2022-12-12T18:13:32.780Z,12.65
2022-12-12T18:15:58.994Z,12.02
2022-12-12T18:18:26.073Z,12.05
2022-12-12T18:20:52.421Z,13.18
2022-12-12T18:23:19.105Z,12.98
2022-12-12T18:25:46.169Z,12.85
2022-12-12T18:28:12.807Z,12.27
2022-12-12T18:30:41.800Z,12.38
2022-12-12T18:33:08.164Z,13.05
2022-12-12T18:35:34.077Z,13.02
2022-12-12T18:38:00.419Z,14.73
2022-12-12T18:40:27.267Z,13.63
2022-12-12T18:42:53.152Z,13.00
2022-12-12T18:45:19.043Z,12.60
2022-12-12T18:47:46.415Z,13.38
2022-12-12T18:50:13.111Z,13.60
2022-12-12T18:52:39.015Z,13.25
2022-12-12T18:55:05.394Z,12.40
2022-12-12T18:57:31.319Z,13.48
2022-12-12T18:59:57.228Z,14.57
2022-12-12T19:02:23.147Z,14.30
2022-12-12T19:04:49.640Z,13.20
2022-12-12T19:07:17.811Z,13.35
2022-12-12T19:09:46.406Z,13.20
2022-12-12T19:12:12.418Z,12.75
2022-12-12T19:15:08.220Z,12.90
2022-12-12T19:17:26.408Z,12.27
2022-12-12T19:19:53.366Z,12.73
2022-12-12T19:22:43.774Z,13.88
2022-12-12T19:25:05.613Z,12.82
2022-12-12T19:27:31.567Z,13.55
2022-12-12T19:29:57.485Z,13.15
2022-12-12T19:32:23.340Z,13.35
2022-12-12T19:34:49.196Z,14.02
2022-12-12T19:37:14.976Z,13.73
2022-12-12T19:39:41.289Z,13.70
2022-12-12T19:42:07.188Z,12.88
2022-12-12T19:44:33.044Z,13.45
2022-12-12T19:46:58.882Z,13.60
2022-12-12T19:49:24.704Z,12.95
2022-12-12T19:51:50.656Z,12.40
2022-12-12T19:54:19.126Z,13.90
2022-12-12T19:56:45.771Z,12.60
2022-12-12T19:59:14.227Z,14.15
2022-12-12T20:01:40.985Z,13.25
2022-12-12T20:04:12.837Z,14.10
2022-12-12T20:06:45.112Z,14.18
2022-12-12T20:09:33.885Z,13.82
2022-12-12T20:12:00.348Z,14.50
2022-12-12T20:14:29.884Z,14.65
2022-12-12T20:16:56.430Z,14.18
2022-12-12T20:19:24.263Z,14.93
2022-12-12T20:22:05.934Z,15.90
2022-12-12T20:24:33.419Z,14.38
2022-12-12T20:27:02.254Z,16.00
2022-12-12T20:29:28.180Z,15.90
2022-12-12T20:31:54.100Z,16.05
2022-12-12T20:34:23.718Z,15.10
2022-12-12T20:36:49.799Z,16.08
2022-12-12T20:39:18.798Z,15.27
2022-12-12T20:41:44.875Z,16.35
2022-12-12T20:44:11.951Z,15.05
2022-12-12T20:46:40.053Z,16.50
2022-12-12T20:49:08.676Z,14.45
2022-12-12T20:54:22.859Z,15.52
2022-12-12T20:56:49.164Z,15.13
2022-12-12T20:59:15.145Z,16.52
2022-12-12T21:01:41.105Z,16.10
2022-12-12T21:04:08.636Z,17.60
2022-12-12T21:06:50.427Z,17.73
2022-12-12T21:09:23.849Z,18.25
2022-12-12T21:11:56.339Z,20.13
2022-12-12T21:14:22.652Z,22.25
2022-12-12T21:16:48.519Z,20.08
2022-12-12T21:19:14.534Z,19.13
2022-12-12T21:21:42.463Z,20.75
2022-12-12T21:24:10.731Z,20.73
2022-12-12T21:26:36.579Z,21.63
2022-12-12T21:29:04.081Z,21.02
2022-12-12T21:31:33.135Z,21.67
2022-12-12T21:33:59.736Z,21.13
2022-12-12T21:36:27.497Z,21.15
2022-12-12T21:38:54.645Z,22.60
2022-12-12T21:41:22.088Z,22.50
2022-12-12T21:43:49.041Z,22.27
2022-12-12T21:46:20.340Z,22.40
2022-12-12T21:49:06.953Z,22.38
2022-12-12T21:51:32.919Z,21.35
2022-12-12T21:53:58.817Z,22.33
2022-12-12T21:56:24.602Z,21.10
2022-12-12T21:58:50.553Z,21.27
2022-12-12T22:01:18.943Z,23.23
2022-12-12T22:03:47.649Z,21.90
2022-12-12T22:06:13.427Z,22.92
2022-12-12T22:08:40.024Z,21.88
2022-12-12T22:11:06.956Z,22.60
2022-12-12T22:13:39.544Z,21.33
2022-12-12T22:16:09.806Z,22.35
2022-12-12T22:18:36.110Z,22.13
2022-12-12T22:21:06.956Z,22.90
2022-12-12T22:23:38.135Z,22.30
2022-12-12T22:26:24.146Z,22.42
2022-12-12T22:31:18.184Z,21.98
2022-12-12T22:33:45.003Z,22.35
2022-12-12T22:36:12.151Z,21.15
2022-12-12T22:38:38.641Z,21.00
2022-12-12T22:41:06.299Z,24.55
2022-12-12T22:43:32.593Z,21.50
2022-12-12T22:46:07.374Z,20.92
2022-12-12T22:48:34.229Z,20.23
2022-12-12T22:51:14.056Z,21.77
2022-12-12T22:53:44.189Z,21.35
2022-12-12T22:56:11.323Z,22.13
2022-12-12T22:58:37.262Z,21.92
2022-12-12T23:01:10.770Z,22.80
2022-12-12T23:03:37.095Z,21.85
2022-12-12T23:06:09.240Z,22.23
2022-12-12T23:08:35.056Z,22.73
2022-12-12T23:11:12.598Z,20.90
2022-12-12T23:13:42.000Z,22.45
2022-12-12T23:16:09.655Z,22.52
2022-12-12T23:18:37.230Z,23.23
2022-12-12T23:21:05.324Z,20.98
2022-12-12T23:23:31.212Z,22.75
2022-12-12T23:26:05.737Z,20.15
2022-12-12T23:28:31.604Z,20.60
2022-12-12T23:30:57.573Z,20.55
2022-12-12T23:33:23.836Z,18.42
2022-12-12T23:35:50.045Z,19.08
2022-12-12T23:38:15.937Z,18.98
2022-12-12T23:40:41.925Z,19.88
2022-12-12T23:43:07.880Z,18.25
2022-12-12T23:45:37.880Z,18.58
2022-12-12T23:48:05.089Z,18.05
2022-12-12T23:50:32.322Z,20.67
2022-12-12T23:52:58.663Z,19.42
2022-12-12T23:55:24.580Z,17.70
2022-12-12T23:57:51.239Z,17.42
